createdAt,value
2018-12-11T00:00:52.498Z,4.56
2018-12-11T00:03:55.837Z,4.56
2018-12-11T00:07:00.770Z,4.53
2018-12-11T00:10:04.384Z,4.58
2018-12-11T00:13:07.671Z,4.56
2018-12-11T00:16:10.962Z,4.53
2018-12-11T00:19:14.226Z,4.52
2018-12-11T00:22:17.412Z,4.45
2018-12-11T00:25:20.704Z,4.51
2018-12-11T00:28:24.028Z,4.46
2018-12-11T00:31:27.299Z,4.41
2018-12-11T00:34:30.483Z,4.32
2018-12-11T00:37:33.722Z,4.41
2018-12-11T00:40:36.922Z,4.34
2018-12-11T00:43:40.142Z,4.30
2018-12-11T00:46:43.415Z,4.33
2018-12-11T00:49:46.594Z,4.29
2018-12-11T00:52:49.761Z,4.29
2018-12-11T00:55:53.016Z,4.25
2018-12-11T00:58:56.290Z,4.29
2018-12-11T04:50:11.423Z,3.16
2018-12-11T04:53:14.719Z,3.18
2018-12-11T04:56:18.172Z,3.26
2018-12-11T04:59:28.212Z,3.25
2018-12-11T05:02:31.465Z,3.31
2018-12-11T05:05:34.635Z,3.24
2018-12-11T05:08:37.877Z,3.20
2018-12-11T05:11:41.065Z,3.26
2018-12-11T05:14:44.319Z,3.23
2018-12-11T05:17:47.489Z,3.25
2018-12-11T05:20:50.641Z,3.28
2018-12-11T05:23:53.821Z,3.28
2018-12-11T05:26:57.029Z,3.33
2018-12-11T05:30:00.189Z,3.34
2018-12-11T05:33:03.351Z,3.28
2018-12-11T05:36:06.530Z,3.30
2018-12-11T05:39:09.693Z,3.35
2018-12-11T05:42:13.267Z,3.42
2018-12-11T05:45:16.592Z,3.46
2018-12-11T05:48:20.251Z,3.41
2018-12-11T05:51:23.697Z,3.31
2018-12-11T05:54:26.847Z,3.25
2018-12-11T05:57:30.069Z,3.23
2018-12-11T06:00:33.293Z,3.19
2018-12-11T06:03:36.521Z,3.14
2018-12-11T06:06:39.822Z,3.18
2018-12-11T06:09:43.191Z,3.22
2018-12-11T06:12:46.464Z,3.14
2018-12-11T06:15:49.847Z,3.08
2018-12-11T06:18:53.663Z,3.03
2018-12-11T06:21:56.935Z,3.05
2018-12-11T06:25:00.349Z,3.10
2018-12-11T06:28:03.693Z,3.04
2018-12-11T06:31:06.963Z,2.96
2018-12-11T06:34:10.148Z,2.94
2018-12-11T06:37:13.374Z,2.94
2018-12-11T06:40:19.784Z,2.91
2018-12-11T06:43:23.073Z,2.94
2018-12-11T06:46:26.296Z,2.96
2018-12-11T06:49:31.362Z,2.97
2018-12-11T06:52:34.754Z,2.95
2018-12-11T06:55:39.209Z,2.96
2018-12-11T06:58:42.451Z,2.94
2018-12-11T07:01:45.888Z,2.92
2018-12-11T07:04:49.083Z,2.90
2018-12-11T07:07:52.316Z,2.88
2018-12-11T07:10:56.909Z,2.85
2018-12-11T07:14:01.649Z,2.83
2018-12-11T07:17:05.001Z,2.83
2018-12-11T07:20:08.572Z,2.81
2018-12-11T07:23:11.861Z,2.85
2018-12-11T07:26:15.151Z,2.84
2018-12-11T07:29:18.506Z,2.85
2018-12-11T07:32:22.237Z,2.84
2018-12-11T07:35:25.617Z,2.89
2018-12-11T07:38:28.837Z,2.86
2018-12-11T07:41:32.165Z,2.85
2018-12-11T07:44:35.427Z,2.83
2018-12-11T07:47:38.907Z,2.83
2018-12-11T07:50:42.075Z,2.81
2018-12-11T07:53:46.334Z,2.79
2018-12-11T07:56:49.491Z,2.89
2018-12-11T07:59:54.762Z,2.85
2018-12-11T08:02:58.430Z,2.83
2018-12-11T08:06:02.660Z,2.83
2018-12-11T08:09:07.540Z,2.85
2018-12-11T08:12:11.344Z,2.87
2018-12-11T08:15:14.648Z,2.94
2018-12-11T08:18:17.946Z,2.99
2018-12-11T08:21:21.285Z,3.04
2018-12-11T08:24:24.465Z,3.02
2018-12-11T08:27:27.624Z,3.05
2018-12-11T08:30:32.021Z,3.09
2018-12-11T08:33:35.221Z,3.10
2018-12-11T08:36:38.436Z,3.11
2018-12-11T08:39:41.686Z,3.16
2018-12-11T08:42:44.865Z,3.19
2018-12-11T08:45:48.068Z,3.29
2018-12-11T08:48:51.227Z,3.34
2018-12-11T08:51:54.383Z,3.48
2018-12-11T08:54:57.531Z,3.58
2018-12-11T08:58:00.706Z,3.64
2018-12-11T09:01:04.113Z,3.80
2018-12-11T09:04:07.276Z,3.95
2018-12-11T09:07:10.448Z,4.13
2018-12-11T09:10:13.801Z,4.19
2018-12-11T09:13:17.094Z,4.30
2018-12-11T09:16:20.361Z,4.36
2018-12-11T09:19:23.610Z,4.40
2018-12-11T09:22:26.886Z,4.63
2018-12-11T09:25:31.587Z,4.82
2018-12-11T09:28:34.731Z,4.97
2018-12-11T09:31:37.900Z,4.74
2018-12-11T09:34:41.081Z,4.80
2018-12-11T09:37:44.395Z,4.72
2018-12-11T09:40:47.689Z,4.85
2018-12-11T09:43:50.880Z,4.79
2018-12-11T09:46:55.199Z,4.78
2018-12-11T09:49:58.368Z,4.78
2018-12-11T09:53:01.569Z,4.96
2018-12-11T09:56:04.823Z,4.93
2018-12-11T09:59:07.990Z,4.84
2018-12-11T10:02:11.124Z,4.86
2018-12-11T10:05:14.285Z,4.96
2018-12-11T10:08:17.463Z,5.21
2018-12-11T10:11:22.004Z,5.10
2018-12-11T10:14:25.266Z,5.15
2018-12-11T10:17:28.557Z,5.17
2018-12-11T10:20:31.745Z,5.13
2018-12-11T10:23:35.334Z,5.19
2018-12-11T10:26:38.642Z,5.24
2018-12-11T10:29:41.813Z,5.25
2018-12-11T10:32:49.228Z,5.32
2018-12-11T10:35:52.475Z,5.34
2018-12-11T10:38:55.766Z,5.44
2018-12-11T10:41:59.472Z,5.53
2018-12-11T10:45:04.296Z,5.55
2018-12-11T10:48:07.526Z,5.61
2018-12-11T10:51:10.850Z,5.55
2018-12-11T10:54:14.047Z,5.52
2018-12-11T10:57:17.382Z,5.57
2018-12-11T11:00:25.893Z,5.61
2018-12-11T11:03:29.071Z,5.70
2018-12-11T11:06:32.280Z,5.73
2018-12-11T11:09:35.461Z,5.83
2018-12-11T11:12:38.659Z,5.91
2018-12-11T11:15:41.807Z,5.79
2018-12-11T11:18:45.426Z,5.81
2018-12-11T11:21:49.719Z,5.88
2018-12-11T11:24:52.990Z,5.89
2018-12-11T11:27:56.345Z,6.03
2018-12-11T11:30:59.715Z,6.02
2018-12-11T11:34:02.983Z,6.04
2018-12-11T11:37:06.155Z,6.17
2018-12-11T11:40:09.395Z,6.17
2018-12-11T11:43:12.694Z,6.28
2018-12-11T11:46:15.954Z,6.37
2018-12-11T11:49:19.149Z,6.30
2018-12-11T11:52:22.389Z,6.23
2018-12-11T11:55:25.555Z,6.19
2018-12-11T11:58:28.716Z,6.35
2018-12-11T12:01:31.913Z,6.35
2018-12-11T12:04:35.237Z,6.47
2018-12-11T12:07:38.408Z,6.53
2018-12-11T12:10:41.624Z,6.49
2018-12-11T12:13:44.810Z,6.31
2018-12-11T12:16:48.010Z,6.53
2018-12-11T12:19:51.201Z,6.73
2018-12-11T12:22:54.386Z,6.55
2018-12-11T12:25:57.568Z,6.55
2018-12-11T12:29:00.733Z,6.65
2018-12-11T12:32:03.977Z,6.58
2018-12-11T12:35:07.549Z,6.60
2018-12-11T12:38:10.993Z,6.68
2018-12-11T12:41:14.972Z,6.40
2018-12-11T12:44:18.188Z,6.37
2018-12-11T12:47:21.342Z,6.39
2018-12-11T12:50:24.566Z,6.43
2018-12-11T12:53:28.006Z,6.20
2018-12-11T12:56:31.182Z,6.12
2018-12-11T12:59:34.387Z,6.20
2018-12-11T13:02:37.589Z,6.17
2018-12-11T13:05:40.776Z,6.38
2018-12-11T13:08:43.970Z,6.38
2018-12-11T13:11:47.238Z,6.07
2018-12-11T13:14:50.431Z,6.07
2018-12-11T13:17:53.611Z,6.17
2018-12-11T13:20:56.940Z,6.03
2018-12-11T13:24:00.245Z,5.99
2018-12-11T13:27:03.555Z,6.03
2018-12-11T13:30:06.913Z,5.97
2018-12-11T13:33:10.122Z,5.83
2018-12-11T13:36:13.470Z,5.96
2018-12-11T13:39:17.013Z,6.03
2018-12-11T13:42:20.274Z,5.89
2018-12-11T13:45:23.578Z,5.76
2018-12-11T13:48:26.838Z,6.11
2018-12-11T13:51:30.014Z,6.03
2018-12-11T13:54:33.209Z,5.94
2018-12-11T13:57:36.408Z,5.89
2018-12-11T14:00:40.718Z,5.82
2018-12-11T14:03:43.907Z,6.00
2018-12-11T14:06:47.080Z,5.82
2018-12-11T14:09:50.361Z,5.87
2018-12-11T14:12:53.657Z,5.72
2018-12-11T14:15:56.922Z,5.74
2018-12-11T14:19:02.223Z,5.72
2018-12-11T14:22:05.532Z,5.80
2018-12-11T14:25:08.876Z,5.76
2018-12-11T14:28:12.122Z,5.72
2018-12-11T14:31:15.458Z,5.71
2018-12-11T14:34:18.648Z,5.93
2018-12-11T14:37:21.835Z,5.74
2018-12-11T14:40:25.148Z,5.76
2018-12-11T14:43:28.335Z,5.78
2018-12-11T14:46:31.520Z,5.80
2018-12-11T14:49:34.711Z,5.87
2018-12-11T14:52:37.881Z,5.81
2018-12-11T14:55:41.049Z,5.92
2018-12-11T14:58:44.218Z,5.95
2018-12-11T15:01:47.395Z,5.71
2018-12-11T15:04:50.559Z,5.74
2018-12-11T15:07:54.160Z,5.68
2018-12-11T15:10:57.323Z,5.70
2018-12-11T15:14:00.504Z,5.61
2018-12-11T15:17:03.773Z,5.70
2018-12-11T15:20:08.536Z,5.58
2018-12-11T15:23:11.714Z,5.70
2018-12-11T15:26:14.983Z,5.69
2018-12-11T15:29:18.222Z,5.75
2018-12-11T15:32:21.436Z,5.77
2018-12-11T15:35:24.596Z,5.82
2018-12-11T15:38:27.744Z,5.61
2018-12-11T15:41:30.897Z,5.63
2018-12-11T15:44:34.082Z,5.59
2018-12-11T15:47:37.247Z,5.78
2018-12-11T15:50:40.419Z,5.74
2018-12-11T15:53:43.915Z,5.65
2018-12-11T15:56:47.650Z,5.71
2018-12-11T15:59:50.946Z,5.73
2018-12-11T16:02:54.129Z,5.68
2018-12-11T16:05:57.299Z,6.11
2018-12-11T16:09:00.484Z,5.90
2018-12-11T16:12:04.023Z,5.98
2018-12-11T16:15:07.466Z,5.94
2018-12-11T16:18:10.875Z,5.85
2018-12-11T16:21:14.127Z,5.73
2018-12-11T16:24:17.339Z,5.97
2018-12-11T16:27:20.589Z,5.82
2018-12-11T16:30:24.042Z,5.82
2018-12-11T16:33:27.455Z,5.99
2018-12-11T16:36:30.818Z,5.99
2018-12-11T16:39:33.997Z,5.85
2018-12-11T16:42:37.171Z,5.85
2018-12-11T16:45:40.387Z,5.91
2018-12-11T16:48:43.554Z,5.80
2018-12-11T16:51:46.740Z,5.76
2018-12-11T16:54:49.956Z,5.70
2018-12-11T16:57:53.228Z,5.95
2018-12-11T17:00:56.479Z,5.89
2018-12-11T17:03:59.733Z,5.71
2018-12-11T17:07:03.003Z,5.73
2018-12-11T17:10:07.881Z,5.94
2018-12-11T17:13:11.155Z,5.83
2018-12-11T17:16:15.397Z,5.81
2018-12-11T17:19:18.601Z,5.98
2018-12-11T17:22:21.870Z,5.89
2018-12-11T17:25:25.059Z,5.85
2018-12-11T17:28:28.318Z,5.88
2018-12-11T17:31:31.637Z,5.87
2018-12-11T17:34:34.922Z,5.75
2018-12-11T17:37:38.236Z,5.75
2018-12-11T17:40:41.626Z,5.78
2018-12-11T17:43:44.879Z,5.88
2018-12-11T17:46:48.085Z,5.76
2018-12-11T17:49:51.286Z,5.91
2018-12-11T17:52:54.577Z,5.84
2018-12-11T17:55:57.770Z,5.76
2018-12-11T17:59:01.251Z,5.78
2018-12-11T18:02:07.085Z,5.79
2018-12-11T18:05:10.260Z,5.77
2018-12-11T18:08:14.666Z,5.77
2018-12-11T18:11:17.847Z,5.90
2018-12-11T18:14:21.055Z,5.80
2018-12-11T18:17:24.292Z,5.82
2018-12-11T18:20:27.590Z,6.05
2018-12-11T18:23:30.834Z,5.85
2018-12-11T18:26:34.023Z,6.08
2018-12-11T18:29:37.240Z,6.19
2018-12-11T18:32:40.967Z,5.96
2018-12-11T18:35:44.226Z,5.92
2018-12-11T18:38:47.505Z,5.89
2018-12-11T18:41:51.116Z,5.77
2018-12-11T18:44:54.519Z,5.96
2018-12-11T18:47:57.827Z,5.77
2018-12-11T18:51:01.086Z,5.74
2018-12-11T18:54:06.147Z,5.78
2018-12-11T18:57:10.707Z,5.82
2018-12-11T19:00:14.546Z,5.87
2018-12-11T19:03:17.870Z,5.90
2018-12-11T19:06:21.215Z,5.87
2018-12-11T19:09:24.472Z,5.81
2018-12-11T19:12:27.819Z,5.78
2018-12-11T19:15:31.203Z,5.85
2018-12-11T19:18:34.643Z,5.77
2018-12-11T19:21:39.132Z,5.73
2018-12-11T19:24:58.051Z,5.92
2018-12-11T19:28:02.317Z,5.79
2018-12-11T19:31:05.821Z,5.81
2018-12-11T19:34:09.238Z,5.78
2018-12-11T19:37:12.735Z,5.87
2018-12-11T19:40:16.287Z,5.81
2018-12-11T19:43:19.821Z,5.76
2018-12-11T19:46:23.249Z,5.87
2018-12-11T19:49:26.900Z,5.77
2018-12-11T19:52:30.510Z,5.77
2018-12-11T19:55:34.066Z,5.88
2018-12-11T19:58:37.797Z,5.76
2018-12-11T20:01:41.685Z,5.69
2018-12-11T20:04:45.236Z,5.82
2018-12-11T20:07:48.814Z,5.64
2018-12-11T20:10:54.304Z,5.66
2018-12-11T20:13:57.920Z,5.60
2018-12-11T20:17:01.514Z,5.56
2018-12-11T20:20:06.111Z,5.53
2018-12-11T20:23:09.831Z,5.53
2018-12-11T20:26:13.420Z,5.48
2018-12-11T20:29:17.092Z,5.53
2018-12-11T20:32:20.641Z,5.45
2018-12-11T20:35:24.162Z,5.50
2018-12-11T20:38:27.920Z,5.49
2018-12-11T20:41:32.020Z,5.47
2018-12-11T20:44:36.568Z,5.45
2018-12-11T20:47:40.038Z,5.45
2018-12-11T20:50:43.533Z,5.69
2018-12-11T20:53:47.099Z,5.60
2018-12-11T20:56:50.591Z,5.52
2018-12-11T20:59:54.059Z,5.42
2018-12-11T21:02:57.628Z,5.41
2018-12-11T21:06:01.800Z,5.41
2018-12-11T21:09:08.836Z,5.50
2018-12-11T21:12:12.428Z,5.61
2018-12-11T21:15:16.020Z,5.57
2018-12-11T21:18:20.625Z,5.44
2018-12-11T21:21:24.265Z,5.46
2018-12-11T21:24:28.169Z,5.76
2018-12-11T21:27:31.677Z,5.82
2018-12-11T21:30:35.376Z,5.71
2018-12-11T21:33:38.896Z,5.60
2018-12-11T21:36:45.096Z,5.84
2018-12-11T21:39:48.527Z,5.69
2018-12-11T21:42:52.235Z,5.91
2018-12-11T21:45:55.608Z,5.79
2018-12-11T21:48:58.930Z,5.70
2018-12-11T21:52:02.305Z,5.77
2018-12-11T21:55:06.860Z,5.63
2018-12-11T21:58:11.053Z,5.69
2018-12-11T22:01:14.306Z,5.66
2018-12-11T22:04:17.485Z,5.65
2018-12-11T22:07:21.024Z,5.91
2018-12-11T22:10:24.272Z,5.72
2018-12-11T22:13:29.241Z,5.57
2018-12-11T22:16:32.452Z,5.71
2018-12-11T22:19:35.605Z,5.63
2018-12-11T22:22:38.951Z,5.91
2018-12-11T22:25:42.128Z,5.74
2018-12-11T22:28:45.350Z,5.84
2018-12-11T22:31:49.823Z,5.87
2018-12-11T22:34:53.257Z,5.59
2018-12-11T22:37:56.615Z,5.61
2018-12-11T22:40:59.844Z,5.95
2018-12-11T22:44:03.161Z,5.82
2018-12-11T22:47:06.446Z,5.91
2018-12-11T22:50:09.747Z,5.80
2018-12-11T22:53:12.900Z,5.82
2018-12-11T22:56:16.171Z,5.64
2018-12-11T22:59:19.399Z,5.48
2018-12-11T23:02:24.796Z,5.81
2018-12-11T23:05:27.954Z,5.86
2018-12-11T23:08:31.220Z,5.77
2018-12-11T23:11:34.395Z,5.88
2018-12-11T23:14:38.617Z,5.90
2018-12-11T23:17:41.921Z,5.88
2018-12-11T23:20:45.078Z,5.84
2018-12-11T23:23:48.276Z,5.94
2018-12-11T23:26:52.422Z,5.81
2018-12-11T23:29:55.560Z,5.61
2018-12-11T23:32:58.911Z,5.82
2018-12-11T23:36:02.080Z,5.70
2018-12-11T23:39:06.835Z,5.67
2018-12-11T23:42:10.022Z,5.76
2018-12-11T23:45:13.334Z,5.69
2018-12-11T23:48:16.970Z,5.90
2018-12-11T23:51:20.238Z,5.75
2018-12-11T23:54:24.330Z,5.82
2018-12-11T23:57:27.951Z,5.77
